createdAt,value
2023-03-15T00:01:56.960Z,1.33
2023-03-15T00:04:27.224Z,1.42
2023-03-15T00:06:56.523Z,1.80
2023-03-15T00:09:39.474Z,1.77
2023-03-15T00:12:08.894Z,1.45
2023-03-15T00:14:40.220Z,1.52
2023-03-15T00:17:13.288Z,1.40
2023-03-15T00:19:48.068Z,1.42
2023-03-15T00:22:17.336Z,1.20
2023-03-15T00:24:48.925Z,1.23
2023-03-15T00:27:20.242Z,1.55
2023-03-15T00:29:52.050Z,1.00
2023-03-15T00:32:25.386Z,1.60
2023-03-15T00:34:56.946Z,1.23
2023-03-15T00:37:26.484Z,1.58
2023-03-15T00:39:57.163Z,1.40
2023-03-15T00:42:27.976Z,2.20
2023-03-15T00:44:57.119Z,2.28
2023-03-15T00:47:27.675Z,2.03
2023-03-15T00:49:56.896Z,2.05
2023-03-15T00:52:29.041Z,2.10
2023-03-15T00:54:58.033Z,1.85
2023-03-15T00:57:29.550Z,1.70
2023-03-15T00:59:58.652Z,1.52
2023-03-15T01:02:29.043Z,1.65
2023-03-15T01:04:57.957Z,1.95
2023-03-15T01:07:29.788Z,1.58
2023-03-15T01:09:58.665Z,1.42
2023-03-15T01:12:27.532Z,2.03
2023-03-15T01:14:58.290Z,1.98
2023-03-15T01:17:28.663Z,1.83
2023-03-15T01:19:57.545Z,1.85
2023-03-15T01:22:29.882Z,2.10
2023-03-15T01:24:58.699Z,2.13
2023-03-15T01:27:27.786Z,2.15
2023-03-15T01:29:57.093Z,1.90
2023-03-15T01:32:28.035Z,2.13
2023-03-15T01:34:56.964Z,2.10
2023-03-15T01:37:25.840Z,2.00
2023-03-15T01:39:57.330Z,1.63
2023-03-15T01:42:26.064Z,1.40
2023-03-15T01:44:58.113Z,1.70
2023-03-15T01:47:28.706Z,1.30
2023-03-15T01:50:03.786Z,2.17
2023-03-15T01:52:37.079Z,1.63
2023-03-15T01:55:11.354Z,1.50
2023-03-15T01:57:43.661Z,1.40
2023-03-15T02:00:16.077Z,1.80
2023-03-15T02:02:51.951Z,1.65
2023-03-15T02:05:26.126Z,1.50
2023-03-15T02:07:56.492Z,1.58
2023-03-15T02:10:32.940Z,1.77
2023-03-15T02:13:01.925Z,1.80
2023-03-15T02:15:31.333Z,2.20
2023-03-15T02:18:02.024Z,2.05
2023-03-15T02:20:42.157Z,2.13
2023-03-15T02:23:28.812Z,2.22
2023-03-15T02:26:05.635Z,2.25
2023-03-15T02:28:36.616Z,1.80
2023-03-15T02:31:05.843Z,2.20
2023-03-15T02:33:39.924Z,2.25
2023-03-15T02:36:18.666Z,2.28
2023-03-15T02:38:47.729Z,2.40
2023-03-15T02:41:20.750Z,2.10
2023-03-15T02:43:55.521Z,2.03
2023-03-15T02:46:25.753Z,2.30
2023-03-15T02:48:55.838Z,2.15
2023-03-15T02:51:26.149Z,2.15
2023-03-15T02:53:57.732Z,2.55
2023-03-15T02:56:27.451Z,2.33
2023-03-15T02:58:58.545Z,2.25
2023-03-15T03:01:27.359Z,2.45
2023-03-15T03:03:56.071Z,2.28
2023-03-15T03:06:24.849Z,2.85
2023-03-15T03:08:53.753Z,2.22
2023-03-15T03:11:23.138Z,1.98
2023-03-15T03:13:52.064Z,2.20
2023-03-15T03:16:23.335Z,1.73
2023-03-15T03:18:53.159Z,2.05
2023-03-15T03:21:22.268Z,1.80
2023-03-15T03:23:50.948Z,1.98
2023-03-15T03:26:20.913Z,1.70
2023-03-15T03:28:50.181Z,1.88
2023-03-15T03:31:28.279Z,1.60
2023-03-15T03:33:58.077Z,1.88
2023-03-15T03:36:28.170Z,1.83
2023-03-15T03:38:57.210Z,1.95
2023-03-15T03:41:26.645Z,1.92
2023-03-15T03:43:55.285Z,1.83
2023-03-15T03:46:25.413Z,2.22
2023-03-15T03:48:54.243Z,2.08
2023-03-15T03:51:22.674Z,1.90
2023-03-15T03:53:51.400Z,2.03
2023-03-15T03:56:20.398Z,2.00
2023-03-15T03:58:49.172Z,1.63
2023-03-15T04:01:19.759Z,2.45
2023-03-15T04:03:50.102Z,2.00
2023-03-15T04:06:22.648Z,2.13
2023-03-15T04:08:51.459Z,2.42
2023-03-15T04:11:19.800Z,2.17
2023-03-15T04:13:48.226Z,2.22
2023-03-15T04:16:17.065Z,2.30
2023-03-15T04:18:45.519Z,1.75
2023-03-15T04:21:17.735Z,2.03
2023-03-15T04:23:46.175Z,1.58
2023-03-15T04:26:14.725Z,1.55
2023-03-15T04:28:43.443Z,1.60
2023-03-15T04:31:14.977Z,1.40
2023-03-15T04:33:43.523Z,1.50
2023-03-15T04:36:19.046Z,1.00
2023-03-15T04:38:49.387Z,1.00
2023-03-15T04:41:19.865Z,1.27
2023-03-15T04:43:48.703Z,0.95
2023-03-15T04:46:21.754Z,0.93
2023-03-15T04:48:52.032Z,1.00
2023-03-15T04:51:20.810Z,0.95
2023-03-15T04:53:53.950Z,0.98
2023-03-15T04:56:22.635Z,0.98
2023-03-15T04:58:51.411Z,1.33
2023-03-15T05:01:20.357Z,0.80
2023-03-15T05:03:51.531Z,0.80
2023-03-15T05:06:21.567Z,1.05
2023-03-15T05:08:51.994Z,0.80
2023-03-15T05:11:24.787Z,1.10
2023-03-15T05:13:54.090Z,0.98
2023-03-15T05:16:22.852Z,1.00
2023-03-15T05:18:51.768Z,0.90
2023-03-15T05:21:20.820Z,1.00
2023-03-15T05:23:51.822Z,1.45
2023-03-15T05:26:25.007Z,1.45
2023-03-15T05:29:01.361Z,1.30
2023-03-15T05:31:29.677Z,1.08
2023-03-15T05:33:57.979Z,0.95
2023-03-15T05:36:26.223Z,1.00
2023-03-15T05:38:55.873Z,1.20
2023-03-15T05:41:24.467Z,1.17
2023-03-15T05:43:52.879Z,1.23
2023-03-15T05:46:22.777Z,1.10
2023-03-15T05:48:51.242Z,2.03
2023-03-15T05:51:19.427Z,1.48
2023-03-15T05:53:47.706Z,1.65
2023-03-15T05:56:20.077Z,1.50
2023-03-15T05:58:48.520Z,1.45
2023-03-15T06:01:16.952Z,1.67
2023-03-15T06:03:45.239Z,1.20
2023-03-15T06:06:13.556Z,1.63
2023-03-15T06:08:41.808Z,1.13
2023-03-15T06:11:10.106Z,1.00
2023-03-15T06:13:41.697Z,1.30
2023-03-15T06:16:10.102Z,1.38
2023-03-15T06:18:38.525Z,1.25
2023-03-15T06:21:07.028Z,1.40
2023-03-15T06:23:38.924Z,1.55
2023-03-15T06:26:07.412Z,1.00
2023-03-15T06:28:35.994Z,1.40
2023-03-15T06:31:09.401Z,1.70
2023-03-15T06:33:37.647Z,1.70
2023-03-15T06:36:07.012Z,1.70
2023-03-15T06:38:35.739Z,2.17
2023-03-15T06:41:06.323Z,1.60
2023-03-15T06:43:34.565Z,1.58
2023-03-15T06:46:03.015Z,1.88
2023-03-15T06:48:32.771Z,1.67
2023-03-15T06:51:01.037Z,1.85
2023-03-15T06:53:29.333Z,1.73
2023-03-15T06:55:57.692Z,1.58
2023-03-15T06:58:26.076Z,2.10
2023-03-15T07:00:54.612Z,1.67
2023-03-15T07:03:23.789Z,1.80
2023-03-15T07:05:54.500Z,1.80
2023-03-15T07:08:24.006Z,1.55
2023-03-15T07:10:53.248Z,2.03
2023-03-15T07:13:21.871Z,1.60
2023-03-15T07:15:59.408Z,1.65
2023-03-15T07:18:30.687Z,1.83
2023-03-15T07:21:06.064Z,2.22
2023-03-15T07:23:36.969Z,1.63
2023-03-15T07:26:07.965Z,2.35
2023-03-15T07:28:38.933Z,2.03
2023-03-15T07:31:07.797Z,2.03
2023-03-15T07:33:37.704Z,2.08
2023-03-15T07:36:09.761Z,2.05
2023-03-15T07:38:56.116Z,2.20
2023-03-15T07:41:24.796Z,1.85
2023-03-15T07:43:58.454Z,1.92
2023-03-15T07:46:32.355Z,2.10
2023-03-15T07:49:02.953Z,2.15
2023-03-15T07:51:33.198Z,2.38
2023-03-15T07:54:04.009Z,2.80
2023-03-15T07:56:32.780Z,2.83
2023-03-15T07:59:01.979Z,2.55
2023-03-15T08:01:35.541Z,3.15
2023-03-15T08:04:07.058Z,2.78
2023-03-15T08:06:37.618Z,2.33
2023-03-15T08:09:10.073Z,2.22
2023-03-15T08:11:40.031Z,2.20
2023-03-15T08:14:08.976Z,2.63
2023-03-15T08:16:41.323Z,2.30
2023-03-15T08:19:13.361Z,3.03
2023-03-15T08:21:48.144Z,2.67
2023-03-15T08:24:24.971Z,2.35
2023-03-15T08:26:53.680Z,3.10
2023-03-15T08:29:25.092Z,2.25
2023-03-15T08:31:54.372Z,2.35
2023-03-15T08:34:23.216Z,2.30
2023-03-15T08:36:53.760Z,2.30
2023-03-15T08:39:24.354Z,2.70
2023-03-15T08:41:53.893Z,2.72
2023-03-15T08:44:22.614Z,2.25
2023-03-15T08:46:51.378Z,2.50
2023-03-15T08:49:20.463Z,1.98
2023-03-15T08:51:49.518Z,1.80
2023-03-15T08:54:20.051Z,1.70
2023-03-15T08:56:52.063Z,2.03
2023-03-15T08:59:31.460Z,1.95
2023-03-15T09:02:01.920Z,1.67
2023-03-15T09:04:34.891Z,1.80
2023-03-15T09:07:03.786Z,1.42
2023-03-15T09:09:39.693Z,2.10
2023-03-15T09:12:09.316Z,1.65
2023-03-15T09:14:41.595Z,2.20
2023-03-15T09:17:13.931Z,1.85
2023-03-15T09:19:42.646Z,2.05
2023-03-15T09:22:16.530Z,1.50
2023-03-15T09:24:57.757Z,1.50
2023-03-15T09:27:32.227Z,1.20
2023-03-15T09:30:07.005Z,1.48
2023-03-15T09:32:37.207Z,1.55
2023-03-15T09:35:06.898Z,1.52
2023-03-15T09:37:36.609Z,1.55
2023-03-15T09:40:10.060Z,1.92
2023-03-15T09:43:00.398Z,2.00
2023-03-15T09:45:39.932Z,1.80
2023-03-15T09:48:14.283Z,2.00
2023-03-15T09:50:51.825Z,1.60
2023-03-15T09:53:29.888Z,2.00
2023-03-15T09:56:01.039Z,1.92
2023-03-15T09:58:35.449Z,1.65
2023-03-15T10:01:08.392Z,1.60
2023-03-15T10:03:49.297Z,1.88
2023-03-15T10:06:27.219Z,1.60
2023-03-15T10:09:00.064Z,1.50
2023-03-15T10:11:37.276Z,1.55
2023-03-15T10:14:25.412Z,1.50
2023-03-15T10:16:56.577Z,1.40
2023-03-15T10:19:34.456Z,1.77
2023-03-15T10:22:13.064Z,1.50
2023-03-15T10:24:51.795Z,1.35
2023-03-15T10:27:27.702Z,1.20
2023-03-15T10:30:00.845Z,1.20
2023-03-15T10:32:35.485Z,1.10
2023-03-15T10:35:07.917Z,1.33
2023-03-15T10:37:37.101Z,1.05
2023-03-15T10:40:19.017Z,1.23
2023-03-15T10:43:01.594Z,1.20
2023-03-15T10:45:31.002Z,1.77
2023-03-15T10:48:01.118Z,1.08
2023-03-15T10:50:36.929Z,1.05
2023-03-15T10:53:21.169Z,1.65
2023-03-15T10:55:51.191Z,1.10
2023-03-15T10:58:31.619Z,1.40
2023-03-15T11:01:09.764Z,0.90
2023-03-15T11:03:39.948Z,1.08
2023-03-15T11:06:25.926Z,1.23
2023-03-15T11:08:58.827Z,1.20
2023-03-15T11:11:28.020Z,1.30
2023-03-15T11:14:02.656Z,1.05
2023-03-15T11:16:36.743Z,1.35
2023-03-15T11:19:16.666Z,1.23
2023-03-15T11:21:47.798Z,0.98
2023-03-15T11:24:30.862Z,1.40
2023-03-15T11:27:05.216Z,1.30
2023-03-15T11:29:37.981Z,1.17
2023-03-15T11:32:17.383Z,0.95
2023-03-15T11:34:58.224Z,1.10
2023-03-15T11:37:31.591Z,1.10
2023-03-15T11:40:12.240Z,1.23
2023-03-15T11:42:56.622Z,1.45
2023-03-15T11:45:38.045Z,1.20
2023-03-15T11:48:19.336Z,1.20
2023-03-15T11:50:48.439Z,0.88
2023-03-15T11:53:22.468Z,1.40
2023-03-15T11:55:53.909Z,1.17
2023-03-15T11:58:35.720Z,1.48
2023-03-15T12:01:07.026Z,1.20
2023-03-15T12:04:31.206Z,1.05
2023-03-15T12:07:05.581Z,1.17
2023-03-15T12:10:02.182Z,1.77
2023-03-15T12:12:39.944Z,1.05
2023-03-15T12:15:48.363Z,0.90
2023-03-15T12:18:32.834Z,1.00
2023-03-15T12:21:14.334Z,0.73
2023-03-15T12:23:50.736Z,0.73
2023-03-15T12:26:40.391Z,1.30
2023-03-15T12:29:22.721Z,1.20
2023-03-15T12:32:00.785Z,1.15
2023-03-15T12:34:46.361Z,1.00
2023-03-15T12:37:20.403Z,1.20
2023-03-15T12:40:00.675Z,0.90
2023-03-15T12:43:13.391Z,1.15
2023-03-15T12:45:47.796Z,1.02
2023-03-15T12:48:32.026Z,0.80
2023-03-15T12:51:19.422Z,1.00
2023-03-15T12:53:53.634Z,1.30
2023-03-15T12:56:45.045Z,1.02
2023-03-15T12:59:41.124Z,1.25
2023-03-15T13:02:42.729Z,1.23
2023-03-15T13:05:29.941Z,1.23
2023-03-15T13:08:11.857Z,1.52
2023-03-15T13:11:12.694Z,1.20
2023-03-15T13:14:07.954Z,1.60
2023-03-15T13:16:46.569Z,1.50
2023-03-15T13:19:23.190Z,1.50
2023-03-15T13:22:09.908Z,1.30
2023-03-15T13:24:52.493Z,1.50
2023-03-15T13:27:43.747Z,1.50
2023-03-15T13:30:35.443Z,1.27
2023-03-15T13:33:24.587Z,1.15
2023-03-15T13:36:01.186Z,1.60
2023-03-15T13:38:36.430Z,1.50
2023-03-15T13:41:23.298Z,1.63
2023-03-15T13:43:55.118Z,1.52
2023-03-15T13:46:27.214Z,1.27
2023-03-15T13:49:03.017Z,1.33
2023-03-15T13:51:35.388Z,1.25
2023-03-15T13:54:09.625Z,1.20
2023-03-15T13:56:55.836Z,1.35
2023-03-15T13:59:29.153Z,1.55
2023-03-15T14:01:59.126Z,1.23
2023-03-15T14:04:29.230Z,1.25
2023-03-15T14:07:26.651Z,1.38
2023-03-15T14:10:31.465Z,1.30
2023-03-15T14:13:25.509Z,1.08
2023-03-15T14:15:59.842Z,1.30
2023-03-15T14:18:34.020Z,1.38
2023-03-15T14:21:08.438Z,1.30
2023-03-15T14:23:42.634Z,1.20
2023-03-15T14:26:19.795Z,1.13
2023-03-15T14:28:57.861Z,1.30
2023-03-15T14:31:30.597Z,1.15
2023-03-15T14:34:07.293Z,1.35
2023-03-15T14:36:43.996Z,1.00
2023-03-15T14:39:20.923Z,1.83
2023-03-15T14:41:49.695Z,1.10
2023-03-15T14:44:19.458Z,1.27
2023-03-15T14:46:47.955Z,1.48
2023-03-15T14:49:23.993Z,1.10
2023-03-15T14:51:58.558Z,1.00
2023-03-15T14:54:28.540Z,0.90
2023-03-15T14:56:56.902Z,1.25
2023-03-15T14:59:27.075Z,1.30
2023-03-15T15:02:06.571Z,1.20
2023-03-15T15:04:37.563Z,1.33
2023-03-15T15:07:11.997Z,1.25
2023-03-15T15:09:43.135Z,1.02
2023-03-15T15:12:12.506Z,0.98
2023-03-15T15:14:43.810Z,1.20
2023-03-15T15:17:12.428Z,1.25
2023-03-15T15:19:41.062Z,1.35
2023-03-15T15:22:14.262Z,1.10
2023-03-15T15:24:42.840Z,1.10
2023-03-15T15:27:11.726Z,1.05
2023-03-15T15:29:41.583Z,1.30
2023-03-15T15:32:09.990Z,1.52
2023-03-15T15:34:38.431Z,1.05
2023-03-15T15:37:06.855Z,1.30
2023-03-15T15:39:38.336Z,1.17
2023-03-15T15:42:07.231Z,1.35
2023-03-15T15:44:35.480Z,1.70
2023-03-15T15:47:08.492Z,2.05
2023-03-15T15:49:36.804Z,2.10
2023-03-15T15:52:11.164Z,1.73
2023-03-15T15:54:40.407Z,2.40
2023-03-15T15:57:12.818Z,2.30
2023-03-15T15:59:41.211Z,2.35
2023-03-15T16:02:22.104Z,2.72
2023-03-15T16:04:50.611Z,2.60
2023-03-15T16:07:21.916Z,2.40
2023-03-15T16:09:55.475Z,2.50
2023-03-15T16:12:26.036Z,2.85
2023-03-15T16:14:54.275Z,3.20
2023-03-15T16:17:25.282Z,3.40
2023-03-15T16:19:54.611Z,3.35
2023-03-15T16:22:27.096Z,3.67
2023-03-15T16:24:58.808Z,2.97
2023-03-15T16:27:29.602Z,3.38
2023-03-15T16:29:57.941Z,4.07
2023-03-15T16:32:43.032Z,3.78
2023-03-15T16:35:17.777Z,3.65
2023-03-15T16:37:47.230Z,4.65
2023-03-15T16:40:22.177Z,4.28
2023-03-15T16:42:50.931Z,4.13
2023-03-15T16:45:19.640Z,3.53
2023-03-15T16:47:49.559Z,3.55
2023-03-15T16:50:18.988Z,3.35
2023-03-15T16:52:50.437Z,3.25
2023-03-15T16:55:22.895Z,3.13
2023-03-15T16:57:51.458Z,3.60
2023-03-15T17:00:20.863Z,3.55
2023-03-15T17:02:54.445Z,3.28
2023-03-15T17:05:25.085Z,3.05
2023-03-15T17:07:55.439Z,3.50
2023-03-15T17:10:27.966Z,3.65
2023-03-15T17:12:58.063Z,3.53
2023-03-15T17:15:29.120Z,3.15
2023-03-15T17:18:00.435Z,3.00
2023-03-15T17:20:30.781Z,2.67
2023-03-15T17:23:04.376Z,3.35
2023-03-15T17:25:35.041Z,3.00
2023-03-15T17:28:03.537Z,2.85
2023-03-15T17:30:34.099Z,3.15
2023-03-15T17:33:05.120Z,3.13
2023-03-15T17:35:40.614Z,4.88
2023-03-15T17:38:19.157Z,5.38
2023-03-15T17:40:48.796Z,6.50
2023-03-15T17:43:20.573Z,3.50
2023-03-15T17:45:49.091Z,3.22
2023-03-15T17:48:19.785Z,2.80
2023-03-15T17:50:48.948Z,3.60
2023-03-15T17:53:21.312Z,2.60
2023-03-15T17:55:50.455Z,2.70
2023-03-15T17:58:24.255Z,2.85
2023-03-15T18:00:54.973Z,3.00
2023-03-15T18:03:26.951Z,3.20
2023-03-15T18:06:02.108Z,3.13
2023-03-15T18:08:31.624Z,2.65
2023-03-15T18:11:01.091Z,3.03
2023-03-15T18:13:31.169Z,5.20
2023-03-15T18:16:05.017Z,3.45
2023-03-15T18:18:36.094Z,2.95
2023-03-15T18:21:05.303Z,2.85
2023-03-15T18:23:34.351Z,2.50
2023-03-15T18:26:04.785Z,2.78
2023-03-15T18:28:33.954Z,2.97
2023-03-15T18:31:04.345Z,3.72
2023-03-15T18:33:38.284Z,4.00
2023-03-15T18:36:07.963Z,4.57
2023-03-15T18:38:37.428Z,4.85
2023-03-15T18:41:14.716Z,4.13
2023-03-15T18:43:49.440Z,5.82
2023-03-15T18:46:19.635Z,4.10
2023-03-15T18:48:50.039Z,3.05
2023-03-15T18:51:18.844Z,3.50
2023-03-15T18:53:48.167Z,2.60
2023-03-15T18:56:20.382Z,3.10
2023-03-15T18:58:51.702Z,3.58
2023-03-15T19:01:23.028Z,3.33
2023-03-15T19:03:55.181Z,4.25
2023-03-15T19:06:23.790Z,4.28
2023-03-15T19:08:54.189Z,4.03
2023-03-15T19:11:24.721Z,4.55
2023-03-15T19:13:55.400Z,4.80
2023-03-15T19:16:24.734Z,3.58
2023-03-15T19:18:55.418Z,3.30
2023-03-15T19:21:24.255Z,3.33
2023-03-15T19:23:53.116Z,3.10
2023-03-15T19:26:21.629Z,3.42
2023-03-15T19:28:49.871Z,3.50
2023-03-15T19:31:21.502Z,3.60
2023-03-15T19:33:49.847Z,3.35
2023-03-15T19:36:19.558Z,3.83
2023-03-15T19:38:48.002Z,3.05
2023-03-15T19:41:17.193Z,4.00
2023-03-15T19:43:46.967Z,4.25
2023-03-15T19:46:17.260Z,4.40
2023-03-15T19:48:45.691Z,3.50
2023-03-15T19:51:14.251Z,4.07
2023-03-15T19:53:44.016Z,4.50
2023-03-15T19:56:12.490Z,5.22
2023-03-15T19:58:41.037Z,5.03
2023-03-15T20:01:09.374Z,5.15
2023-03-15T20:03:48.549Z,5.10
2023-03-15T20:06:17.033Z,5.03
2023-03-15T20:08:46.739Z,5.38
2023-03-15T20:11:20.083Z,4.40
2023-03-15T20:13:48.447Z,3.83
2023-03-15T20:16:17.708Z,4.05
2023-03-15T20:18:51.200Z,3.70
2023-03-15T20:21:20.044Z,4.00
2023-03-15T20:23:56.171Z,3.95
2023-03-15T20:26:25.327Z,4.20
2023-03-15T20:28:56.755Z,3.65
2023-03-15T20:31:25.477Z,4.20
2023-03-15T20:33:58.393Z,4.22
2023-03-15T20:36:27.135Z,4.25
2023-03-15T20:38:56.818Z,4.03
2023-03-15T20:41:25.189Z,4.22
2023-03-15T20:43:53.480Z,4.03
2023-03-15T20:46:24.313Z,4.65
2023-03-15T20:49:03.870Z,3.90
2023-03-15T20:51:32.517Z,4.93
2023-03-15T20:54:02.218Z,4.68
2023-03-15T20:56:34.746Z,4.63
2023-03-15T20:59:07.482Z,4.65
2023-03-15T21:01:38.135Z,5.40
2023-03-15T21:04:07.364Z,4.35
2023-03-15T21:06:36.532Z,4.90
2023-03-15T21:09:07.585Z,5.25
2023-03-15T21:11:37.670Z,4.55
2023-03-15T21:14:09.584Z,4.88
2023-03-15T21:16:38.995Z,5.15
2023-03-15T21:19:08.189Z,5.47
2023-03-15T21:21:39.134Z,4.68
2023-03-15T21:24:10.920Z,5.25
2023-03-15T21:26:40.550Z,5.28
2023-03-15T21:29:12.548Z,4.65
2023-03-15T21:31:41.907Z,4.97
2023-03-15T21:34:11.634Z,5.15
2023-03-15T21:36:42.639Z,5.30
2023-03-15T21:39:13.414Z,5.38
2023-03-15T21:41:42.533Z,5.65
2023-03-15T21:44:11.951Z,5.57
2023-03-15T21:46:42.380Z,6.10
2023-03-15T21:49:12.153Z,6.20
2023-03-15T21:51:46.122Z,5.80
2023-03-15T21:54:16.180Z,5.50
2023-03-15T21:56:44.515Z,5.63
2023-03-15T21:59:12.938Z,5.97
2023-03-15T22:01:41.750Z,5.57
2023-03-15T22:04:10.003Z,5.75
2023-03-15T22:06:38.633Z,5.68
2023-03-15T22:09:06.901Z,6.10
2023-03-15T22:11:36.597Z,5.22
2023-03-15T22:14:05.363Z,5.93
2023-03-15T22:16:33.994Z,5.45
2023-03-15T22:19:04.341Z,5.82
2023-03-15T22:21:32.986Z,5.60
2023-03-15T22:24:01.297Z,5.55
2023-03-15T22:26:29.531Z,5.53
2023-03-15T22:28:59.719Z,5.18
2023-03-15T22:31:31.356Z,5.03
2023-03-15T22:33:59.905Z,4.95
2023-03-15T22:36:28.261Z,4.82
2023-03-15T22:38:58.435Z,5.18
2023-03-15T22:41:26.718Z,5.03
2023-03-15T22:43:55.952Z,5.35
2023-03-15T22:46:26.076Z,5.05
2023-03-15T22:48:54.568Z,4.55
2023-03-15T22:51:22.966Z,4.63
2023-03-15T22:53:51.363Z,5.18
2023-03-15T22:56:20.517Z,4.85
2023-03-15T22:58:48.834Z,4.55
2023-03-15T23:01:17.086Z,5.03
2023-03-15T23:03:46.792Z,4.63
2023-03-15T23:06:14.997Z,5.00
2023-03-15T23:08:43.685Z,4.78
2023-03-15T23:11:11.957Z,4.40
2023-03-15T23:13:42.136Z,4.43
2023-03-15T23:16:10.477Z,4.78
2023-03-15T23:18:38.814Z,5.15
2023-03-15T23:21:11.262Z,5.30
2023-03-15T23:23:40.683Z,5.20
2023-03-15T23:26:08.981Z,4.90
2023-03-15T23:28:37.555Z,5.30
2023-03-15T23:31:08.243Z,4.55
2023-03-15T23:33:36.842Z,5.00
2023-03-15T23:36:09.041Z,4.78
2023-03-15T23:38:37.392Z,4.60
2023-03-15T23:41:08.686Z,4.55
2023-03-15T23:43:41.556Z,5.20
2023-03-15T23:46:09.892Z,5.28
2023-03-15T23:48:38.683Z,4.65
2023-03-15T23:51:09.355Z,5.47
2023-03-15T23:53:37.748Z,5.50
2023-03-15T23:56:06.773Z,5.63
2023-03-15T23:58:35.119Z,5.90
